Time;durP1;ratioP1;P1;durP2;ratioP2;P2;SDS_P1;SDS_P2;PMS_P1;PMS_P2;Temp;Humidity;BMP_temperature;BMP_pressure;BME280_temperature;BME280_humidity;BME280_pressure;Samples;Min_cycle;Max_cycle;Signal;HPM_P1;HPM_P2
2023/01/31 00:01:58;;;;;;;0.30;0.30;;;;;;;18.85;63.22;96891.66;5022658;28;20403;-24
2023/01/31 00:04:23;;;;;;;0.20;0.20;;;;;;;18.83;60.48;96880.38;5022715;28;20029;-24
2023/01/31 00:06:49;;;;;;;1.10;0.30;;;;;;;18.84;63.42;96896.28;5022578;28;20025;-24
2023/01/31 00:09:15;;;;;;;0.20;0.20;;;;;;;18.74;59.28;96900.09;5024153;28;20105;-24
2023/01/31 00:11:41;;;;;;;0.20;0.20;;;;;;;18.81;63.23;96905.00;4997137;28;20126;-23
2023/01/31 00:14:07;;;;;;;0.20;0.20;;;;;;;18.83;62.36;96907.41;5024324;28;20471;-23
2023/01/31 00:16:33;;;;;;;0.20;0.20;;;;;;;18.76;62.49;96905.19;5023283;28;20026;-22
2023/01/31 00:18:59;;;;;;;0.20;0.20;;;;;;;18.80;63.35;96911.56;5023871;28;20052;-23
2023/01/31 00:21:26;;;;;;;0.10;0.10;;;;;;;18.80;63.26;96919.66;5022924;28;20396;-23
2023/01/31 00:23:52;;;;;;;0.30;0.30;;;;;;;18.81;63.56;96921.22;5023862;28;20419;-22
2023/01/31 00:26:20;;;;;;;0.20;0.20;;;;;;;18.82;62.70;96932.88;5005802;28;20029;-22
2023/01/31 00:28:47;;;;;;;0.20;0.20;;;;;;;18.79;62.51;96925.41;5026897;28;20555;-22
2023/01/31 00:31:13;;;;;;;0.20;0.20;;;;;;;18.83;63.56;96934.47;5030502;28;20546;-22
2023/01/31 00:33:40;;;;;;;0.28;0.28;;;;;;;18.79;63.25;96937.00;5011855;28;20033;-22
2023/01/31 00:36:09;;;;;;;0.30;0.30;;;;;;;18.78;62.89;96935.41;5028355;28;20053;-23
2023/01/31 00:38:35;;;;;;;0.20;0.20;;;;;;;18.80;63.01;96949.41;5030234;28;20029;-26
2023/01/31 00:41:01;;;;;;;0.20;0.20;;;;;;;18.77;63.12;96950.06;5027606;28;20104;-23
2023/01/31 00:43:26;;;;;;;0.20;0.20;;;;;;;18.79;61.24;96958.66;5029783;28;20045;-23
2023/01/31 00:45:52;;;;;;;0.30;0.30;;;;;;;18.80;63.27;96964.84;5029765;28;20104;-24
2023/01/31 00:48:18;;;;;;;0.20;0.20;;;;;;;18.71;59.58;96968.41;5028286;28;20037;-23
2023/01/31 00:50:43;;;;;;;0.20;0.20;;;;;;;18.77;62.67;96975.19;5030120;28;20045;-25
2023/01/31 00:53:09;;;;;;;0.20;0.20;;;;;;;18.80;63.16;96978.38;5030152;28;20032;-22
2023/01/31 00:55:35;;;;;;;0.30;0.20;;;;;;;18.75;62.66;96977.44;5029454;28;20502;-24
2023/01/31 00:58:00;;;;;;;0.20;0.20;;;;;;;18.81;63.43;96988.06;5030147;28;20269;-23
2023/01/31 01:00:26;;;;;;;0.85;0.30;;;;;;;18.78;63.22;96989.50;5029770;28;20101;-23
2023/01/31 01:02:52;;;;;;;0.20;0.20;;;;;;;18.77;62.45;96993.34;5029725;28;20041;-23
2023/01/31 01:05:20;;;;;;;0.22;0.22;;;;;;;18.81;63.40;97002.38;5029294;28;20025;-22
2023/01/31 01:07:46;;;;;;;0.30;0.22;;;;;;;18.80;62.00;96998.13;5028670;28;20035;-23
2023/01/31 01:10:11;;;;;;;0.28;0.28;;;;;;;18.79;62.43;97007.34;5030340;28;20402;-24
2023/01/31 01:12:37;;;;;;;0.25;0.25;;;;;;;18.80;63.22;96992.72;5028595;28;20076;-24
2023/01/31 01:15:03;;;;;;;0.20;0.20;;;;;;;18.81;63.37;97015.13;5029709;28;20040;-24
2023/01/31 01:17:29;;;;;;;0.30;0.30;;;;;;;18.81;63.41;97015.13;5027475;28;20021;-23
2023/01/31 01:19:55;;;;;;;0.20;0.20;;;;;;;18.75;62.92;97009.91;5027371;28;20037;-22
2023/01/31 01:22:20;;;;;;;0.30;0.30;;;;;;;18.79;62.58;97022.78;5027381;28;20481;-23
2023/01/31 01:24:46;;;;;;;0.20;0.20;;;;;;;18.79;62.28;97030.91;5028216;28;20021;-22
2023/01/31 01:27:12;;;;;;;0.22;0.22;;;;;;;18.71;59.89;97027.91;5029511;28;20025;-23
2023/01/31 01:29:38;;;;;;;0.20;0.20;;;;;;;18.78;63.22;97046.31;5027684;28;20044;-22
2023/01/31 01:32:04;;;;;;;0.30;0.30;;;;;;;18.79;62.80;97042.50;5028256;28;20044;-23
2023/01/31 01:34:31;;;;;;;0.20;0.20;;;;;;;18.79;63.40;97039.78;5029699;28;20025;-24
2023/01/31 01:36:57;;;;;;;0.30;0.30;;;;;;;18.78;63.34;97046.31;5027611;28;20025;-23
2023/01/31 01:39:23;;;;;;;0.20;0.20;;;;;;;18.76;62.91;97043.16;5027773;28;20052;-23
2023/01/31 01:41:50;;;;;;;0.30;0.30;;;;;;;18.73;61.23;97047.31;5026261;28;20029;-24
2023/01/31 01:44:53;;;;;;;0.45;0.30;;;;;;;18.74;62.58;97059.69;5024835;28;20034;-22
2023/01/31 01:47:35;;;;;;;0.40;0.40;;;;;;;18.76;63.16;97062.06;5024323;28;20403;-24
2023/01/31 01:50:33;;;;;;;0.30;0.30;;;;;;;18.75;61.71;97061.28;5026661;28;20073;-25
2023/01/31 01:53:01;;;;;;;0.20;0.20;;;;;;;18.77;63.43;97071.78;5024598;28;20067;-22
2023/01/31 01:55:36;;;;;;;0.30;0.30;;;;;;;18.76;63.35;97072.91;5023796;28;20079;-22
2023/01/31 01:58:19;;;;;;;0.30;0.30;;;;;;;18.77;63.37;97085.31;5025939;28;20033;-26
2023/01/31 02:00:45;;;;;;;0.20;0.20;;;;;;;18.74;62.94;97092.16;5026017;28;20047;-23
2023/01/31 02:03:11;;;;;;;0.20;0.20;;;;;;;18.77;63.58;97102.34;5026075;28;20043;-22
2023/01/31 02:05:49;;;;;;;0.30;0.30;;;;;;;18.78;63.52;97089.59;5025742;28;20057;-23
2023/01/31 02:08:16;;;;;;;0.30;0.30;;;;;;;18.75;63.01;97103.78;5024237;28;20033;-23
2023/01/31 02:10:46;;;;;;;0.30;0.30;;;;;;;18.73;63.37;97098.69;5024420;28;20033;-23
2023/01/31 02:13:12;;;;;;;0.28;0.28;;;;;;;18.75;62.85;97106.50;5024250;28;20029;-23
2023/01/31 02:15:38;;;;;;;0.40;0.40;;;;;;;18.77;63.25;97109.66;5024128;28;20086;-21
2023/01/31 02:18:04;;;;;;;0.30;0.30;;;;;;;18.75;63.17;97107.28;5024362;28;20037;-21
2023/01/31 02:20:53;;;;;;;0.30;0.30;;;;;;;18.79;63.33;97122.88;5007859;28;20040;-22
2023/01/31 02:23:42;;;;;;;0.40;0.40;;;;;;;18.77;63.68;97128.59;5010848;28;20484;-21
2023/01/31 02:26:26;;;;;;;0.40;0.40;;;;;;;18.78;63.28;97124.75;5024367;28;20034;-23
2023/01/31 02:29:10;;;;;;;0.22;0.22;;;;;;;18.77;63.30;97132.09;5025221;28;20470;-21
2023/01/31 02:31:39;;;;;;;0.30;0.30;;;;;;;18.77;62.98;97139.41;5025065;28;20109;-22
2023/01/31 02:34:30;;;;;;;0.30;0.30;;;;;;;18.77;62.84;97144.84;5025555;28;20026;-23
2023/01/31 02:37:05;;;;;;;0.40;0.40;;;;;;;18.76;63.13;97144.03;5023740;28;20449;-22
2023/01/31 02:40:08;;;;;;;0.40;0.40;;;;;;;18.77;63.02;97148.31;5023501;28;20036;-22
2023/01/31 02:43:04;;;;;;;0.40;0.40;;;;;;;18.78;63.04;97157.22;5023771;28;20030;-22
2023/01/31 02:45:49;;;;;;;0.40;0.40;;;;;;;18.77;63.00;97163.75;5023557;28;20056;-25
2023/01/31 02:48:20;;;;;;;0.40;0.40;;;;;;;18.77;63.07;97153.72;5025649;28;20599;-22
2023/01/31 02:50:53;;;;;;;0.40;0.40;;;;;;;18.73;62.84;97163.63;5025135;28;20132;-22
2023/01/31 02:53:34;;;;;;;0.50;0.50;;;;;;;18.73;61.47;97170.91;5023320;28;20025;-21
2023/01/31 02:56:17;;;;;;;0.40;0.38;;;;;;;18.75;62.75;97177.59;5023561;28;20482;-23
2023/01/31 02:58:53;;;;;;;0.50;0.50;;;;;;;18.77;63.17;97182.69;5024943;28;20503;-23
2023/01/31 03:01:30;;;;;;;0.40;0.40;;;;;;;18.76;62.91;97178.41;5023263;28;20026;-21
2023/01/31 03:04:02;;;;;;;0.50;0.50;;;;;;;18.75;63.09;97180.31;5023379;28;20038;-22
2023/01/31 03:06:33;;;;;;;0.38;0.38;;;;;;;18.77;62.90;97185.41;5007214;28;20037;-22
2023/01/31 03:09:23;;;;;;;0.40;0.40;;;;;;;18.77;63.10;97196.22;5024676;28;20045;-23
2023/01/31 03:11:52;;;;;;;0.30;0.30;;;;;;;18.77;62.74;97193.53;5024047;28;20372;-22
2023/01/31 03:14:20;;;;;;;0.40;0.40;;;;;;;18.75;62.39;97196.53;5022483;28;20496;-21
2023/01/31 03:19:45;;;;;;;0.40;0.40;;;;;;;18.75;62.73;97201.16;5022454;28;20438;-23
2023/01/31 03:22:15;;;;;;;0.38;0.38;;;;;;;18.76;62.85;97200.84;5022598;28;20021;-24
2023/01/31 03:24:42;;;;;;;0.50;0.50;;;;;;;18.76;62.65;97197.31;5023780;28;20025;-22
2023/01/31 03:27:08;;;;;;;0.73;0.50;;;;;;;18.75;62.80;97212.78;5023479;28;20363;-22
2023/01/31 03:29:35;;;;;;;0.50;0.50;;;;;;;18.76;62.99;97208.16;5020294;28;20176;-22
2023/01/31 03:32:07;;;;;;;0.50;0.50;;;;;;;18.77;62.80;97223.28;5023753;28;20025;-23
2023/01/31 03:34:32;;;;;;;0.43;0.43;;;;;;;18.76;62.23;97214.38;5022314;28;20021;-25
2023/01/31 03:37:32;;;;;;;0.32;0.32;;;;;;;18.77;62.41;97220.56;5023567;28;20451;-22
2023/01/31 03:40:06;;;;;;;0.50;0.50;;;;;;;18.77;62.46;97217.88;5013638;28;20034;-22
2023/01/31 03:42:32;;;;;;;0.63;0.63;;;;;;;18.77;62.52;97229.47;5023953;28;20022;-25
2023/01/31 03:45:06;;;;;;;0.50;0.50;;;;;;;18.76;62.66;97232.50;5022582;28;20116;-22
2023/01/31 03:47:40;;;;;;;0.65;0.50;;;;;;;18.76;62.70;97229.78;5005116;28;20040;-25
2023/01/31 03:50:12;;;;;;;0.52;0.52;;;;;;;18.76;62.63;97240.63;5005692;28;20096;-24
2023/01/31 03:52:45;;;;;;;0.50;0.50;;;;;;;18.74;61.33;97254.44;5024174;28;20033;-22
2023/01/31 03:55:14;;;;;;;0.68;0.68;;;;;;;18.75;62.65;97260.69;5020784;28;20018;-22
2023/01/31 03:57:40;;;;;;;0.43;0.43;;;;;;;18.72;62.38;97259.38;5021527;28;20037;-24
2023/01/31 04:00:08;;;;;;;0.52;0.52;;;;;;;18.74;62.74;97270.69;5022538;28;20388;-24
2023/01/31 04:02:35;;;;;;;0.55;0.55;;;;;;;18.76;62.49;97259.56;5022743;28;20108;-23
2023/01/31 04:05:10;;;;;;;0.40;0.40;;;;;;;18.76;62.75;97283.91;5021986;28;20108;-23
2023/01/31 04:07:36;;;;;;;0.45;0.45;;;;;;;18.75;62.30;97282.31;5021081;28;20042;-25
2023/01/31 04:10:03;;;;;;;0.60;0.60;;;;;;;18.72;62.34;97286.44;5022004;28;20022;-23
2023/01/31 04:12:29;;;;;;;0.50;0.50;;;;;;;18.76;62.66;97286.59;5022235;28;20059;-22
2023/01/31 04:14:54;;;;;;;1.48;0.57;;;;;;;18.75;61.04;97303.97;5023603;28;20471;-25
2023/01/31 04:17:20;;;;;;;0.60;0.60;;;;;;;18.75;62.12;97310.16;5022285;28;20602;-22
2023/01/31 04:19:45;;;;;;;0.55;0.55;;;;;;;18.74;62.55;97311.25;5023830;28;20474;-24
2023/01/31 04:22:11;;;;;;;0.50;0.50;;;;;;;18.75;62.53;97314.78;5023618;28;20525;-23
2023/01/31 04:24:37;;;;;;;0.43;0.43;;;;;;;18.75;62.54;97317.50;5023623;28;20026;-21
2023/01/31 04:27:03;;;;;;;0.65;0.60;;;;;;;18.70;63.88;97318.44;5021704;28;20052;-26
2023/01/31 04:29:28;;;;;;;0.60;0.60;;;;;;;18.67;64.02;97319.06;5021939;28;20450;-22
2023/01/31 04:31:54;;;;;;;0.57;0.57;;;;;;;18.71;62.69;97328.16;5023783;28;20204;-22
2023/01/31 04:34:20;;;;;;;0.52;0.52;;;;;;;18.72;62.58;97331.63;5023348;28;20030;-24
2023/01/31 04:36:45;;;;;;;0.50;0.50;;;;;;;18.70;62.78;97329.25;5023263;28;20034;-21
2023/01/31 04:39:12;;;;;;;0.88;0.80;;;;;;;18.72;61.22;97328.94;5023048;28;20459;-21
2023/01/31 04:41:38;;;;;;;0.60;0.60;;;;;;;18.72;62.79;97335.13;5022670;28;20033;-23
2023/01/31 04:44:03;;;;;;;0.45;0.45;;;;;;;18.73;62.76;97341.31;5023614;28;20060;-22
2023/01/31 04:46:29;;;;;;;0.50;0.50;;;;;;;18.72;62.56;97348.66;5023447;28;20025;-24
2023/01/31 04:48:55;;;;;;;0.50;0.50;;;;;;;18.71;62.70;97347.09;5022697;28;20424;-23
2023/01/31 04:51:20;;;;;;;0.65;0.60;;;;;;;18.70;62.66;97339.28;5019905;28;20071;-22
2023/01/31 04:53:46;;;;;;;0.50;0.50;;;;;;;18.72;62.70;97345.16;5022983;28;20022;-24
2023/01/31 04:56:12;;;;;;;0.63;0.63;;;;;;;18.72;62.63;97348.66;5022176;28;20018;-22
2023/01/31 04:58:37;;;;;;;0.40;0.40;;;;;;;18.73;62.72;97354.84;5021318;28;20156;-22
2023/01/31 05:01:03;;;;;;;0.45;0.45;;;;;;;18.72;62.59;97364.09;5020940;28;20042;-23
2023/01/31 05:03:29;;;;;;;0.50;0.50;;;;;;;18.72;62.88;97373.00;5019438;28;20033;-22
2023/01/31 05:05:54;;;;;;;0.40;0.40;;;;;;;18.71;62.63;97367.91;5022027;28;20104;-21
2023/01/31 05:08:20;;;;;;;0.50;0.50;;;;;;;18.73;62.37;97376.50;5020968;28;20352;-22
2023/01/31 05:10:45;;;;;;;0.60;0.47;;;;;;;18.72;62.51;97372.22;5023335;28;20120;-22
2023/01/31 05:13:11;;;;;;;0.50;0.50;;;;;;;18.73;62.76;97387.31;5022647;28;20033;-23
2023/01/31 05:15:38;;;;;;;0.50;0.50;;;;;;;18.72;62.51;97383.03;5022884;28;20037;-23
2023/01/31 05:18:04;;;;;;;0.52;0.52;;;;;;;18.72;62.31;97388.44;5024362;28;20029;-23
2023/01/31 05:20:30;;;;;;;0.50;0.50;;;;;;;18.71;62.64;97387.66;5025753;28;20040;-23
2023/01/31 05:22:57;;;;;;;0.82;0.60;;;;;;;18.69;62.15;97386.34;5024658;28;20083;-24
2023/01/31 05:25:23;;;;;;;0.52;0.52;;;;;;;18.68;62.27;97398.28;5023249;28;20460;-22
2023/01/31 05:27:49;;;;;;;0.50;0.50;;;;;;;18.70;62.70;97410.41;5021968;28;20045;-22
2023/01/31 05:30:15;;;;;;;0.50;0.50;;;;;;;18.68;62.39;97417.22;5020670;28;20116;-22
2023/01/31 05:32:41;;;;;;;0.60;0.60;;;;;;;18.69;62.36;97413.41;5019540;28;20371;-26
2023/01/31 05:35:07;;;;;;;0.50;0.50;;;;;;;18.70;62.32;97420.44;5023941;28;20022;-24
2023/01/31 05:37:32;;;;;;;0.60;0.60;;;;;;;18.68;60.61;97425.31;5023074;28;20065;-22
2023/01/31 05:39:58;;;;;;;0.50;0.50;;;;;;;18.68;62.13;97434.25;5024060;28;20152;-22
2023/01/31 05:42:23;;;;;;;0.40;0.40;;;;;;;18.67;62.50;97432.66;5027501;28;20072;-21
2023/01/31 05:44:49;;;;;;;0.40;0.40;;;;;;;18.67;62.52;97442.69;5026391;28;20028;-22
2023/01/31 05:47:15;;;;;;;0.70;0.52;;;;;;;18.62;61.89;97445.53;5025435;28;20030;-24
2023/01/31 05:49:40;;;;;;;0.43;0.43;;;;;;;18.65;61.75;97445.69;5023384;28;20025;-21
2023/01/31 05:52:06;;;;;;;0.40;0.40;;;;;;;18.64;60.71;97451.41;5023618;28;20128;-27
2023/01/31 05:54:33;;;;;;;0.40;0.40;;;;;;;18.63;62.39;97455.25;5021997;28;20128;-23
2023/01/31 05:56:59;;;;;;;0.50;0.50;;;;;;;18.65;61.80;97461.13;5022362;28;20042;-24
2023/01/31 05:59:25;;;;;;;0.47;0.47;;;;;;;18.61;62.27;97471.78;5023261;28;20029;-25
2023/01/31 06:01:51;;;;;;;0.40;0.40;;;;;;;18.63;62.44;97474.19;5024365;28;20036;-23
2023/01/31 06:04:16;;;;;;;0.73;0.50;;;;;;;18.56;59.87;97475.41;5027340;28;20040;-24
2023/01/31 06:06:44;;;;;;;0.40;0.40;;;;;;;18.61;62.63;97470.97;5025808;28;20032;-25
2023/01/31 06:09:10;;;;;;;0.30;0.30;;;;;;;18.62;62.48;97473.38;5026549;28;20479;-21
2023/01/31 06:11:36;;;;;;;0.60;0.60;;;;;;;18.58;62.15;97489.41;5026717;28;20017;-23
2023/01/31 06:14:01;;;;;;;0.68;0.43;;;;;;;18.60;62.63;97475.59;5027058;28;20025;-22
2023/01/31 06:16:27;;;;;;;0.50;0.50;;;;;;;18.61;62.91;97474.50;5027147;28;20033;-23
2023/01/31 06:18:54;;;;;;;0.30;0.30;;;;;;;18.61;62.51;97473.69;5027139;28;20033;-22
2023/01/31 06:21:20;;;;;;;0.40;0.40;;;;;;;18.61;62.74;97479.91;5025037;28;20057;-25
2023/01/31 06:23:46;;;;;;;0.40;0.40;;;;;;;18.58;62.85;97478.59;5026918;28;20510;-23
2023/01/31 06:26:12;;;;;;;0.50;0.50;;;;;;;18.62;62.94;97478.00;5026217;28;20057;-24
2023/01/31 06:28:38;;;;;;;0.45;0.45;;;;;;;18.62;62.84;97483.41;5026031;28;20037;-22
2023/01/31 06:31:07;;;;;;;0.30;0.30;;;;;;;18.60;62.73;97491.03;5026986;28;20021;-23
2023/01/31 06:33:33;;;;;;;0.40;0.40;;;;;;;18.61;62.58;97498.00;5024682;28;20037;-22
2023/01/31 06:35:59;;;;;;;0.43;0.40;;;;;;;18.62;62.04;97499.63;5026671;28;20021;-23
2023/01/31 06:38:26;;;;;;;0.35;0.32;;;;;;;18.61;61.60;97503.41;5026039;28;20037;-23
2023/01/31 06:40:51;;;;;;;0.40;0.40;;;;;;;18.57;62.15;97517.59;5026003;28;20120;-22
2023/01/31 06:43:21;;;;;;;0.40;0.40;;;;;;;18.63;62.60;97520.16;5025926;28;20056;-25
2023/01/31 06:45:48;;;;;;;0.40;0.40;;;;;;;18.61;62.83;97530.47;5026074;28;20041;-21
2023/01/31 06:48:14;;;;;;;0.38;0.38;;;;;;;18.58;62.59;97527.28;5025888;28;20109;-24
2023/01/31 06:50:39;;;;;;;0.40;0.40;;;;;;;18.55;60.86;97527.91;5025714;28;20443;-21
2023/01/31 06:53:05;;;;;;;0.45;0.40;;;;;;;18.53;62.27;97519.31;5025756;28;20044;-21
2023/01/31 06:55:31;;;;;;;0.30;0.30;;;;;;;18.56;62.72;97517.91;5024738;28;20013;-23
2023/01/31 06:57:57;;;;;;;0.32;0.32;;;;;;;18.57;62.80;97533.81;5025622;28;20044;-22
2023/01/31 07:00:26;;;;;;;0.45;0.40;;;;;;;18.53;59.88;97530.13;5023670;28;20030;-22
2023/01/31 07:02:51;;;;;;;0.30;0.30;;;;;;;18.56;62.85;97534.13;5024430;28;20033;-22
2023/01/31 07:05:20;;;;;;;0.40;0.30;;;;;;;18.55;63.08;97536.00;5025208;28;20500;-22
2023/01/31 07:07:46;;;;;;;0.30;0.30;;;;;;;18.57;62.79;97551.94;5023493;28;20477;-22
2023/01/31 07:10:12;;;;;;;0.35;0.35;;;;;;;18.54;62.28;97560.66;5023918;28;20583;-23
2023/01/31 07:12:38;;;;;;;1.20;0.40;;;;;;;18.56;62.68;97567.38;5025863;28;20033;-21
2023/01/31 07:15:04;;;;;;;0.30;0.30;;;;;;;18.56;63.22;97572.00;5022606;28;20039;-24
2023/01/31 07:17:30;;;;;;;0.47;0.47;;;;;;;18.56;63.14;97566.56;5025576;28;20087;-21
2023/01/31 07:19:55;;;;;;;0.40;0.40;;;;;;;18.55;61.31;97573.88;5025351;28;20034;-22
2023/01/31 07:22:21;;;;;;;0.40;0.40;;;;;;;18.52;62.75;97565.59;5025709;28;20041;-27
2023/01/31 07:24:49;;;;;;;0.30;0.30;;;;;;;18.55;60.79;97578.50;5025707;28;20017;-21
2023/01/31 07:27:14;;;;;;;0.30;0.30;;;;;;;18.53;62.42;97573.38;5025933;28;20140;-30
2023/01/31 07:29:40;;;;;;;0.32;0.32;;;;;;;18.52;62.44;97585.34;5024822;28;20044;-21
2023/01/31 07:32:06;;;;;;;0.30;0.30;;;;;;;18.52;62.62;97598.03;5025591;28;20036;-21
2023/01/31 07:34:32;;;;;;;0.40;0.40;;;;;;;18.51;62.81;97602.66;5025498;28;20087;-22
2023/01/31 07:37:00;;;;;;;0.30;0.30;;;;;;;18.50;61.88;97601.03;5024987;28;20103;-23
2023/01/31 07:39:25;;;;;;;0.30;0.30;;;;;;;18.51;62.50;97613.47;5023653;28;20809;-21
2023/01/31 07:41:51;;;;;;;0.30;0.30;;;;;;;18.52;62.96;97606.97;5023261;28;20029;-22
2023/01/31 07:46:55;;;;;;;0.32;0.32;;;;;;;18.52;62.94;97625.91;5016092;23;20497;-27
2023/01/31 07:49:21;;;;;;;0.35;0.30;;;;;;;18.52;61.51;97628.59;4959625;28;20074;-26
2023/01/31 07:51:46;;;;;;;0.20;0.20;;;;;;;18.51;62.77;97631.59;4975205;28;20030;-26
2023/01/31 07:54:12;;;;;;;0.45;0.45;;;;;;;18.51;62.71;97635.09;4963216;28;20029;-26
2023/01/31 07:56:38;;;;;;;0.35;0.35;;;;;;;18.48;61.54;97624.09;4968794;28;20023;-27
2023/01/31 07:59:06;;;;;;;0.30;0.30;;;;;;;18.52;62.85;97642.13;4969667;28;20030;-26
2023/01/31 08:04:16;;;;;;;;;;;;;;;18.54;62.93;97639.91;4975171;28;20313;-24
2023/01/31 08:06:42;;;;;;;0.30;0.30;;;;;;;18.53;62.88;97648.31;4973708;28;20356;-26
2023/01/31 08:09:08;;;;;;;0.20;0.20;;;;;;;18.51;62.35;97645.91;4976858;28;20033;-30
2023/01/31 08:11:34;;;;;;;0.63;0.40;;;;;;;18.51;63.01;97648.63;4982881;28;20026;-26
2023/01/31 08:13:59;;;;;;;0.28;0.28;;;;;;;18.51;62.04;97655.94;4986476;28;20100;-26
2023/01/31 08:16:25;;;;;;;0.75;0.40;;;;;;;18.49;62.95;97650.84;4966713;28;20041;-26
2023/01/31 08:18:51;;;;;;;0.28;0.28;;;;;;;18.51;63.16;97651.34;4979754;28;20069;-26
2023/01/31 08:21:19;;;;;;;0.30;0.30;;;;;;;18.51;63.13;97650.53;4968741;28;20121;-26
2023/01/31 08:23:45;;;;;;;0.60;0.30;;;;;;;18.51;63.17;97656.75;4972281;28;20035;-25
2023/01/31 08:26:15;;;;;;;0.30;0.30;;;;;;;18.51;63.15;97662.16;4975826;28;20481;-26
2023/01/31 08:28:42;;;;;;;0.30;0.30;;;;;;;18.50;63.00;97663.25;4973512;28;20088;-26
2023/01/31 08:31:13;;;;;;;1.23;0.20;;;;;;;18.48;62.30;97673.56;4967127;28;20302;-26
2023/01/31 08:33:39;;;;;;;0.30;0.30;;;;;;;18.48;61.08;97662.75;4973624;28;20045;-26
2023/01/31 08:36:19;;;;;;;0.30;0.30;;;;;;;18.52;62.90;97676.47;4981358;28;20034;-26
2023/01/31 08:38:45;;;;;;;0.40;0.40;;;;;;;18.45;61.24;97674.19;4956838;28;20033;-26
2023/01/31 08:41:11;;;;;;;0.52;0.30;;;;;;;18.45;61.73;97676.88;4977599;28;20030;-26
2023/01/31 08:43:37;;;;;;;0.28;0.28;;;;;;;18.47;63.20;97673.88;4986159;28;20080;-26
2023/01/31 08:46:06;;;;;;;0.30;0.30;;;;;;;18.45;62.03;97685.00;4974527;28;20038;-26
2023/01/31 08:48:33;;;;;;;0.30;0.30;;;;;;;18.45;62.76;97690.41;4962941;28;20138;-26
2023/01/31 08:51:05;;;;;;;0.30;0.30;;;;;;;18.46;62.56;97685.81;4983091;28;20026;-26
2023/01/31 08:53:31;;;;;;;0.40;0.40;;;;;;;18.46;63.14;97685.81;4966860;28;20046;-26
2023/01/31 08:56:00;;;;;;;0.25;0.25;;;;;;;18.46;63.22;97680.41;4972581;28;20393;-26
2023/01/31 08:58:26;;;;;;;0.30;0.30;;;;;;;18.45;62.90;97684.19;4977260;28;20042;-26
2023/01/31 09:00:53;;;;;;;0.50;0.40;;;;;;;18.45;62.90;97679.59;4966907;28;20085;-26
2023/01/31 09:03:19;;;;;;;0.20;0.20;;;;;;;18.45;63.09;97690.41;4959569;28;20030;-26
2023/01/31 09:05:45;;;;;;;0.32;0.32;;;;;;;18.44;61.54;97679.88;4973086;28;20505;-26
2023/01/31 09:08:11;;;;;;;0.30;0.25;;;;;;;18.44;63.06;97694.22;4974649;28;20045;-26
2023/01/31 09:10:37;;;;;;;0.20;0.20;;;;;;;18.44;62.69;97694.22;4966897;28;20034;-26
2023/01/31 09:13:02;;;;;;;0.30;0.30;;;;;;;18.41;62.90;97697.53;4975784;28;20050;-26
2023/01/31 09:15:28;;;;;;;0.30;0.30;;;;;;;18.44;62.35;97706.94;4958212;28;20058;-26
2023/01/31 09:17:54;;;;;;;0.30;0.30;;;;;;;18.43;63.08;97710.75;4976577;28;20566;-26
2023/01/31 09:20:20;;;;;;;0.20;0.20;;;;;;;18.42;60.90;97719.97;4973346;28;20026;-26
2023/01/31 09:22:45;;;;;;;0.20;0.20;;;;;;;18.39;62.58;97719.47;4980462;28;20045;-26
2023/01/31 09:25:11;;;;;;;0.30;0.30;;;;;;;18.42;62.69;97718.06;4978745;28;20034;-26
2023/01/31 09:27:37;;;;;;;0.60;0.30;;;;;;;18.33;59.97;97731.50;4979068;28;20123;-26
2023/01/31 09:30:05;;;;;;;0.55;0.40;;;;;;;18.35;61.50;97728.47;4970861;28;20038;-26
2023/01/31 09:32:34;;;;;;;0.40;0.40;;;;;;;18.39;62.79;97730.28;4971063;28;20030;-26
2023/01/31 09:34:59;;;;;;;0.30;0.30;;;;;;;18.41;62.57;97732.69;4975104;28;20027;-26
2023/01/31 09:37:28;;;;;;;0.20;0.20;;;;;;;18.43;63.18;97741.28;4958194;28;20302;-26
2023/01/31 09:39:54;;;;;;;0.35;0.20;;;;;;;18.41;63.09;97729.97;4960354;28;20089;-26
2023/01/31 09:42:26;;;;;;;0.20;0.20;;;;;;;18.42;63.24;97734.28;4971428;28;20382;-26
2023/01/31 09:45:01;;;;;;;0.20;0.20;;;;;;;18.43;63.10;97740.50;4966343;28;20381;-26
2023/01/31 09:47:30;;;;;;;0.50;0.32;;;;;;;18.41;63.24;97737.31;4954373;28;20042;-25
2023/01/31 09:50:11;;;;;;;0.47;0.40;;;;;;;18.42;62.90;97733.47;4949311;28;20042;-26
2023/01/31 09:52:37;;;;;;;0.30;0.30;;;;;;;18.43;61.81;97746.69;4958245;28;20375;-26
2023/01/31 09:55:03;;;;;;;0.20;0.20;;;;;;;18.44;63.52;97745.59;4959192;28;20121;-25
2023/01/31 09:57:45;;;;;;;0.20;0.20;;;;;;;18.42;62.83;97739.72;4968943;28;20035;-26
2023/01/31 10:00:31;;;;;;;0.30;0.30;;;;;;;18.43;63.53;97741.28;4973304;28;20022;-26
2023/01/31 10:03:09;;;;;;;0.20;0.20;;;;;;;18.45;63.52;97754.50;4956864;28;20084;-26
2023/01/31 10:06:08;;;;;;;0.30;0.30;;;;;;;18.44;63.57;97753.72;4969583;28;20081;-27
2023/01/31 10:08:55;;;;;;;0.30;0.30;;;;;;;18.40;62.76;97755.41;4956209;28;20030;-26
2023/01/31 10:11:47;;;;;;;0.35;0.30;;;;;;;18.43;63.36;97756.72;4966283;28;20023;-26
2023/01/31 10:14:52;;;;;;;0.30;0.30;;;;;;;18.46;63.75;97765.03;4956146;28;20504;-25
2023/01/31 10:17:34;;;;;;;0.95;0.30;;;;;;;18.46;63.54;97758.81;4947811;28;20043;-26
2023/01/31 10:20:17;;;;;;;0.30;0.30;;;;;;;18.47;63.72;97760.41;4972854;28;20037;-26
2023/01/31 10:22:51;;;;;;;0.68;0.30;;;;;;;18.47;63.71;97755.81;4942271;28;20736;-26
2023/01/31 10:25:38;;;;;;;0.45;0.30;;;;;;;18.49;63.69;97755.50;4972435;28;20039;-26
2023/01/31 10:28:19;;;;;;;0.50;0.20;;;;;;;18.46;63.67;97746.09;4968457;28;20035;-26
2023/01/31 10:31:17;;;;;;;0.30;0.30;;;;;;;18.48;63.78;97753.91;4961182;28;20121;-26
2023/01/31 10:33:48;;;;;;;0.20;0.20;;;;;;;18.48;63.53;97754.69;4973010;28;20061;-26
2023/01/31 10:36:24;;;;;;;0.40;0.30;;;;;;;18.49;63.69;97750.09;4959328;28;20039;-27
2023/01/31 10:38:54;;;;;;;0.30;0.30;;;;;;;18.49;63.60;97753.59;4972332;28;20125;-27
2023/01/31 10:41:43;;;;;;;0.45;0.20;;;;;;;18.50;63.50;97757.91;4967196;28;20027;-26
2023/01/31 10:44:20;;;;;;;0.30;0.30;;;;;;;18.50;63.63;97757.91;4956850;28;20394;-26
2023/01/31 10:46:47;;;;;;;0.80;0.35;;;;;;;18.44;60.28;97753.72;4971626;28;20092;-26
2023/01/31 10:49:12;;;;;;;1.38;0.30;;;;;;;18.49;63.40;97767.13;4971734;28;20046;-26
2023/01/31 10:52:07;;;;;;;0.30;0.30;;;;;;;18.51;63.60;97759.50;4973408;28;20027;-26
2023/01/31 10:54:53;;;;;;;;;;;;;;;18.52;63.74;97763.81;4970620;28;20118;-23
2023/01/31 10:57:19;;;;;;;0.45;0.40;;;;;;;18.54;63.88;97763.50;4967991;28;19918;-26
2023/01/31 10:59:45;;;;;;;0.60;0.40;;;;;;;18.53;63.75;97778.94;4970290;28;20443;-26
2023/01/31 11:02:22;;;;;;;0.38;0.30;;;;;;;18.52;62.61;97781.94;4969166;28;20023;-25
2023/01/31 11:04:50;;;;;;;0.40;0.20;;;;;;;18.53;63.18;97791.66;4969332;28;20497;-26
2023/01/31 11:07:15;;;;;;;0.40;0.30;;;;;;;18.49;62.34;97791.47;4967309;28;20207;-25
2023/01/31 11:09:50;;;;;;;0.52;0.30;;;;;;;18.54;63.60;97790.53;4954552;28;20030;-26
2023/01/31 11:12:16;;;;;;;0.47;0.47;;;;;;;18.53;63.49;97788.97;4953651;28;20086;-25
2023/01/31 11:14:42;;;;;;;0.30;0.30;;;;;;;18.53;63.99;97781.63;4973949;28;20042;-26
2023/01/31 11:17:19;;;;;;;0.40;0.20;;;;;;;18.54;63.30;97785.94;4966684;28;20041;-26
2023/01/31 11:19:49;;;;;;;0.50;0.40;;;;;;;18.53;63.49;97778.94;4958097;28;20026;-26
2023/01/31 11:22:29;;;;;;;0.40;0.40;;;;;;;18.54;62.89;97785.94;4949928;28;20035;-26
2023/01/31 11:24:55;;;;;;;0.30;0.30;;;;;;;18.55;63.66;97776.72;4972961;28;20394;-26
2023/01/31 11:27:26;;;;;;;0.50;0.40;;;;;;;18.57;63.94;97784.53;4959515;28;20026;-26
2023/01/31 11:29:53;;;;;;;0.20;0.20;;;;;;;18.53;62.84;97776.22;4972487;28;20102;-26
2023/01/31 11:32:24;;;;;;;0.30;0.30;;;;;;;18.56;63.61;97775.63;4976947;28;20178;-26
2023/01/31 11:35:00;;;;;;;0.95;0.40;;;;;;;18.56;64.01;97778.31;4970532;28;20420;-26
2023/01/31 11:37:27;;;;;;;0.35;0.32;;;;;;;18.57;63.83;97774.53;4971381;28;20480;-26
2023/01/31 11:40:00;;;;;;;0.82;0.40;;;;;;;18.58;64.00;97786.94;4955844;28;20030;-25
2023/01/31 11:42:26;;;;;;;0.30;0.30;;;;;;;18.57;63.29;97788.06;4969862;28;20035;-26
2023/01/31 11:44:53;;;;;;;0.25;0.25;;;;;;;18.58;63.67;97792.34;4967679;28;20037;-26
2023/01/31 11:47:18;;;;;;;0.20;0.20;;;;;;;18.60;63.93;97781.22;4971195;28;20058;-26
2023/01/31 11:49:46;;;;;;;0.60;0.28;;;;;;;18.47;60.81;97787.44;4938495;28;20362;-26
2023/01/31 11:52:14;;;;;;;0.50;0.35;;;;;;;18.57;63.58;97776.41;4970988;28;20122;-27
2023/01/31 11:54:53;;;;;;;0.55;0.30;;;;;;;18.56;63.66;97772.91;4971539;28;20026;-26